createdAt,value
2022-12-20T00:04:06.268Z,8.13
2022-12-20T00:09:09.143Z,8.11
2022-12-20T00:14:11.035Z,8.12
2022-12-20T00:19:12.707Z,8.14
2022-12-20T00:24:14.335Z,8.12
2022-12-20T00:29:15.894Z,8.11
2022-12-20T00:34:17.535Z,8.07
2022-12-20T00:39:19.207Z,8.07
2022-12-20T00:44:20.933Z,8.11
2022-12-20T00:49:22.793Z,8.08
2022-12-20T00:54:24.409Z,8.05
2022-12-20T00:59:26.095Z,8.04
2022-12-20T01:04:28.715Z,8.05
2022-12-20T01:09:30.418Z,8.01
2022-12-20T01:14:32.095Z,8.03
2022-12-20T01:19:33.893Z,8.00
2022-12-20T01:24:35.548Z,8.05
2022-12-20T01:29:37.304Z,8.00
2022-12-20T01:34:39.081Z,7.96
2022-12-20T01:39:40.937Z,7.96
2022-12-20T01:44:42.628Z,7.95
2022-12-20T01:49:47.167Z,7.94
2022-12-20T01:54:53.478Z,7.94
2022-12-20T01:59:56.861Z,7.94
2022-12-20T02:04:58.614Z,7.95
2022-12-20T02:10:02.137Z,7.94
2022-12-20T02:15:12.961Z,7.93
2022-12-20T02:20:48.287Z,7.92
2022-12-20T02:26:11.904Z,7.94
2022-12-20T02:31:19.216Z,7.89
2022-12-20T02:36:21.431Z,7.91
2022-12-20T02:41:40.335Z,7.91
2022-12-20T02:46:42.342Z,7.94
2022-12-20T02:51:47.055Z,7.94
2022-12-20T02:56:55.906Z,7.94
2022-12-20T03:01:59.740Z,7.98
2022-12-20T03:07:11.264Z,8.04
2022-12-20T03:12:15.934Z,8.01
2022-12-20T03:17:17.874Z,8.02
2022-12-20T03:22:19.664Z,8.04
2022-12-20T03:27:21.320Z,8.07
2022-12-20T03:32:23.259Z,8.11
2022-12-20T03:37:25.072Z,8.11
2022-12-20T03:42:27.468Z,8.12
2022-12-20T03:47:29.253Z,8.16
2022-12-20T03:52:31.294Z,8.17
2022-12-20T03:57:32.942Z,8.23
2022-12-20T04:02:34.942Z,8.24
2022-12-20T04:07:37.020Z,8.24
2022-12-20T04:12:38.688Z,8.25
2022-12-20T04:17:44.175Z,8.26
2022-12-20T04:22:47.859Z,8.27
2022-12-20T04:27:49.447Z,8.28
2022-12-20T04:32:54.697Z,8.36
2022-12-20T04:37:57.112Z,8.40
2022-12-20T04:42:59.010Z,8.43
2022-12-20T04:48:21.125Z,8.49
2022-12-20T04:53:42.373Z,8.54
2022-12-20T04:58:45.927Z,8.56
2022-12-20T05:03:49.567Z,8.53
2022-12-20T05:08:52.176Z,8.47
2022-12-20T05:13:53.977Z,8.42
2022-12-20T05:18:56.558Z,8.39
2022-12-20T05:24:17.263Z,8.37
2022-12-20T05:29:45.059Z,8.34
2022-12-20T05:34:46.748Z,8.30
2022-12-20T05:39:50.473Z,8.26
2022-12-20T05:44:56.025Z,8.29
2022-12-20T05:49:57.844Z,8.32
2022-12-20T05:55:00.141Z,8.34
2022-12-20T06:05:55.296Z,8.36
2022-12-20T06:11:04.830Z,8.37
2022-12-20T06:16:11.128Z,8.39
2022-12-20T06:21:13.461Z,8.40
2022-12-20T06:26:15.577Z,8.47
2022-12-20T06:31:24.395Z,8.52
2022-12-20T06:36:28.437Z,8.57
2022-12-20T06:41:30.896Z,8.58
2022-12-20T06:46:32.929Z,8.58
2022-12-20T06:51:34.625Z,8.61
2022-12-20T06:56:41.204Z,8.55
2022-12-20T07:01:45.592Z,8.55
2022-12-20T07:06:47.368Z,8.59
2022-12-20T07:11:49.682Z,8.64
2022-12-20T07:16:51.467Z,8.62
2022-12-20T07:21:53.244Z,8.60
2022-12-20T07:26:54.897Z,8.63
2022-12-20T07:31:56.716Z,8.66
2022-12-20T07:36:58.973Z,8.66
2022-12-20T07:42:00.773Z,8.67
2022-12-20T07:47:08.127Z,8.68
2022-12-20T07:52:12.223Z,8.72
2022-12-20T07:57:20.746Z,8.73
2022-12-20T08:02:37.435Z,8.75
2022-12-20T08:07:41.337Z,8.76
2022-12-20T08:12:45.322Z,8.81
2022-12-20T08:17:46.977Z,8.79
2022-12-20T08:22:48.650Z,8.77
2022-12-20T08:27:50.336Z,8.77
2022-12-20T08:32:52.005Z,8.68
2022-12-20T08:37:54.286Z,8.64
2022-12-20T08:42:55.953Z,8.58
2022-12-20T08:47:57.644Z,8.53
2022-12-20T08:52:59.369Z,8.51
2022-12-20T08:58:01.089Z,8.47
2022-12-20T09:03:03.081Z,8.45
2022-12-20T09:08:05.954Z,8.36
2022-12-20T09:13:07.702Z,8.40
2022-12-20T09:18:10.212Z,8.39
2022-12-20T09:23:12.072Z,8.42
2022-12-20T09:28:13.796Z,8.49
2022-12-20T09:33:15.431Z,8.58
2022-12-20T09:38:17.038Z,8.54
2022-12-20T09:43:21.051Z,8.61
2022-12-20T09:48:30.388Z,8.58
2022-12-20T09:53:44.400Z,8.61
2022-12-20T09:58:55.277Z,8.61
2022-12-20T10:03:59.113Z,8.63
2022-12-20T10:09:03.932Z,8.63
2022-12-20T10:14:27.180Z,8.62
2022-12-20T10:19:57.875Z,8.65
2022-12-20T10:25:13.115Z,8.63
2022-12-20T10:30:18.436Z,8.62
2022-12-20T10:35:25.268Z,8.68
2022-12-20T10:40:46.594Z,8.65
2022-12-20T10:46:00.914Z,8.64
2022-12-20T10:51:16.631Z,8.72
2022-12-20T10:56:22.410Z,8.72
2022-12-20T11:01:28.778Z,8.75
2022-12-20T11:06:39.414Z,8.78
2022-12-20T11:11:58.032Z,8.78
2022-12-20T11:17:04.627Z,8.86
2022-12-20T11:22:26.465Z,8.87
2022-12-20T11:27:32.738Z,8.90
2022-12-20T11:32:51.008Z,8.94
2022-12-20T11:38:12.530Z,9.00
2022-12-20T11:43:17.229Z,9.02
2022-12-20T11:48:48.234Z,9.01
2022-12-20T11:54:00.234Z,9.06
2022-12-20T11:59:20.753Z,9.09
2022-12-20T12:04:27.176Z,9.11
2022-12-20T12:09:45.366Z,9.13
2022-12-20T12:14:55.372Z,9.13
2022-12-20T12:20:10.670Z,9.16
2022-12-20T12:25:17.933Z,9.17
2022-12-20T12:30:19.885Z,9.19
2022-12-20T12:35:49.223Z,9.17
2022-12-20T12:41:03.037Z,9.19
2022-12-20T12:46:14.483Z,9.23
2022-12-20T12:51:24.924Z,9.25
2022-12-20T12:56:43.384Z,9.29
2022-12-20T13:02:04.698Z,9.30
2022-12-20T13:07:46.148Z,9.32
2022-12-20T13:12:57.208Z,9.35
2022-12-20T13:18:17.670Z,9.37
2022-12-20T13:23:23.977Z,9.36
2022-12-20T13:28:25.610Z,9.37
2022-12-20T13:33:48.065Z,9.34
2022-12-20T13:38:59.056Z,9.35
2022-12-20T13:44:15.817Z,9.37
2022-12-20T13:49:25.639Z,9.34
2022-12-20T13:54:27.810Z,9.35
2022-12-20T13:59:32.531Z,9.34
2022-12-20T14:04:46.699Z,9.35
2022-12-20T14:09:56.484Z,9.34
2022-12-20T14:14:58.409Z,9.31
2022-12-20T14:20:09.576Z,9.33
2022-12-20T14:25:17.966Z,9.33
2022-12-20T14:30:36.788Z,9.32
2022-12-20T14:35:47.557Z,9.35
2022-12-20T14:40:54.006Z,9.31
2022-12-20T14:46:30.707Z,9.29
2022-12-20T14:51:32.691Z,9.30
2022-12-20T14:56:34.508Z,9.27
2022-12-20T15:01:41.861Z,9.25
2022-12-20T15:06:46.075Z,9.24
2022-12-20T15:11:48.680Z,9.21
2022-12-20T15:16:50.957Z,9.21
2022-12-20T15:21:53.285Z,9.20
2022-12-20T15:26:55.788Z,9.18
2022-12-20T15:32:29.953Z,9.17
2022-12-20T15:37:31.857Z,9.16
2022-12-20T15:42:33.583Z,9.15
2022-12-20T15:47:35.209Z,9.14
2022-12-20T15:52:37.025Z,9.12
2022-12-20T15:57:38.692Z,9.08
2022-12-20T16:02:40.574Z,9.04
2022-12-20T16:07:42.393Z,9.05
2022-12-20T16:12:44.161Z,9.04
2022-12-20T16:17:46.340Z,9.01
2022-12-20T16:22:48.069Z,9.02
2022-12-20T16:27:49.751Z,8.99
2022-12-20T16:32:51.988Z,8.96
2022-12-20T16:37:55.668Z,8.94
2022-12-20T16:42:58.515Z,8.93
2022-12-20T16:48:00.210Z,8.92
2022-12-20T16:53:01.923Z,8.78
2022-12-20T16:58:03.615Z,8.76
2022-12-20T17:03:07.004Z,8.70
2022-12-20T17:13:29.574Z,8.69
2022-12-20T17:18:31.295Z,8.63
2022-12-20T17:23:43.933Z,8.58
2022-12-20T17:28:46.357Z,8.59
2022-12-20T17:33:48.051Z,8.58
2022-12-20T17:38:49.834Z,8.55
2022-12-20T17:43:52.933Z,8.55
2022-12-20T17:48:54.713Z,8.56
2022-12-20T17:54:01.635Z,8.55
2022-12-20T17:59:07.070Z,8.54
2022-12-20T18:04:11.314Z,8.51
2022-12-20T18:09:19.337Z,8.47
2022-12-20T18:14:21.354Z,8.45
2022-12-20T18:19:22.997Z,8.43
2022-12-20T18:24:24.622Z,8.41
2022-12-20T18:29:26.227Z,8.39
2022-12-20T18:34:27.856Z,8.36
2022-12-20T18:39:29.584Z,8.31
2022-12-20T18:44:35.764Z,8.25
2022-12-20T18:49:37.711Z,8.28
2022-12-20T18:54:39.437Z,8.29
2022-12-20T18:59:41.092Z,8.20
2022-12-20T19:04:42.796Z,8.23
2022-12-20T19:09:45.508Z,8.26
2022-12-20T19:14:47.523Z,8.18
2022-12-20T19:19:49.097Z,8.12
2022-12-20T19:24:52.820Z,8.15
2022-12-20T19:29:54.630Z,8.22
2022-12-20T19:34:56.356Z,8.25
2022-12-20T19:39:58.055Z,8.25
2022-12-20T19:45:02.286Z,8.25
2022-12-20T19:50:08.087Z,8.27
2022-12-20T19:55:09.850Z,8.24
2022-12-20T20:00:14.985Z,8.19
2022-12-20T20:05:16.869Z,8.13
2022-12-20T20:10:18.637Z,8.16
2022-12-20T20:15:20.236Z,8.18
2022-12-20T20:20:22.466Z,8.23
2022-12-20T20:25:24.062Z,8.16
2022-12-20T20:30:25.747Z,8.24
2022-12-20T20:35:27.416Z,8.24
2022-12-20T20:40:29.403Z,8.20
2022-12-20T20:45:31.060Z,8.12
2022-12-20T20:50:32.885Z,8.06
2022-12-20T20:55:35.378Z,8.06
2022-12-20T21:00:39.541Z,8.08
2022-12-20T21:06:22.355Z,8.13
2022-12-20T21:11:07.138Z,8.10
2022-12-20T21:16:10.155Z,8.04
2022-12-20T21:21:13.297Z,8.06
2022-12-20T21:26:16.809Z,8.05
2022-12-20T21:31:19.762Z,8.07
2022-12-20T21:36:21.448Z,8.02
2022-12-20T21:41:26.213Z,8.02
2022-12-20T21:46:29.526Z,8.10
2022-12-20T21:51:31.556Z,8.10
2022-12-20T21:56:35.603Z,8.09
2022-12-20T22:01:37.425Z,8.01
2022-12-20T22:06:40.716Z,7.96
2022-12-20T22:11:42.368Z,7.99
2022-12-20T22:16:44.321Z,7.99
2022-12-20T22:21:46.000Z,7.93
2022-12-20T22:26:47.880Z,7.95
2022-12-20T22:31:50.622Z,7.86
2022-12-20T22:36:52.423Z,7.75
2022-12-20T22:41:54.022Z,7.69
2022-12-20T22:46:55.644Z,7.68
2022-12-20T22:52:06.926Z,7.70
2022-12-20T22:57:11.963Z,7.72
2022-12-20T23:02:13.809Z,7.69
2022-12-20T23:07:15.669Z,7.76
2022-12-20T23:12:35.936Z,7.77
2022-12-20T23:17:37.579Z,7.77
2022-12-20T23:22:39.551Z,7.76
2022-12-20T23:27:43.421Z,7.75
2022-12-20T23:32:45.294Z,7.79
2022-12-20T23:37:47.991Z,7.82
2022-12-20T23:42:53.039Z,7.80
2022-12-20T23:47:54.622Z,7.80
2022-12-20T23:52:56.162Z,7.77
2022-12-20T23:57:57.827Z,7.74
